createdAt,value
2018-10-05T00:02:24.334Z,102194.41
2018-10-05T00:05:29.846Z,102187.02
2018-10-05T00:08:35.627Z,102188.52
2018-10-05T00:11:41.451Z,102186.94
2018-10-05T00:14:46.983Z,102180.23
2018-10-05T00:17:52.436Z,102180.05
2018-10-05T00:20:57.847Z,102185.28
2018-10-05T00:24:03.575Z,102180.13
2018-10-05T00:27:08.981Z,102180.52
2018-10-05T00:30:14.407Z,102176.44
2018-10-05T00:33:19.937Z,102179.91
2018-10-05T00:36:25.355Z,102182.98
2018-10-05T00:39:30.786Z,102186.55
2018-10-05T00:42:36.250Z,102178.35
2018-10-05T00:45:41.929Z,102176.58
2018-10-05T00:48:47.472Z,102180.13
2018-10-05T00:51:52.894Z,102168.17
2018-10-05T00:54:58.395Z,102161.36
2018-10-05T00:58:03.828Z,102159.78
2018-10-05T01:01:09.403Z,102162.88
2018-10-05T01:04:14.939Z,102159.56
2018-10-05T01:07:20.330Z,102164.14
2018-10-05T01:10:25.775Z,102159.04
2018-10-05T01:13:31.388Z,102162.84
2018-10-05T01:16:36.816Z,102159.19
2018-10-05T01:19:42.370Z,102158.67
2018-10-05T01:22:47.793Z,102160.97
2018-10-05T01:25:53.272Z,102158.92
2018-10-05T01:28:58.667Z,102156.82
2018-10-05T01:32:04.154Z,102161.22
2018-10-05T01:35:09.963Z,102166.92
2018-10-05T01:38:15.347Z,102171.77
2018-10-05T01:41:20.746Z,102168.36
2018-10-05T01:44:26.150Z,102162.47
2018-10-05T01:47:31.551Z,102155.13
2018-10-05T01:50:36.966Z,102157.23
2018-10-05T01:53:42.383Z,102157.50
2018-10-05T01:56:48.575Z,102157.48
2018-10-05T01:59:54.000Z,102152.68
2018-10-05T02:02:59.378Z,102150.39
2018-10-05T02:06:04.878Z,102148.33
2018-10-05T02:09:10.258Z,102146.47
2018-10-05T02:12:15.735Z,102134.44
2018-10-05T02:15:21.364Z,102137.38
2018-10-05T02:18:26.743Z,102140.59
2018-10-05T02:21:32.162Z,102139.33
2018-10-05T02:24:37.579Z,102138.59
2018-10-05T02:27:43.026Z,102136.71
2018-10-05T02:30:48.427Z,102131.36
2018-10-05T02:33:53.934Z,102131.74
2018-10-05T02:36:59.370Z,102130.30
2018-10-05T02:40:05.024Z,102124.17
2018-10-05T02:43:10.504Z,102121.89
2018-10-05T02:46:15.914Z,102118.15
2018-10-05T02:49:21.308Z,102115.84
2018-10-05T02:52:26.723Z,102116.55
2018-10-05T02:55:32.216Z,102110.45
2018-10-05T02:58:37.630Z,102108.23
2018-10-05T03:02:00.059Z,102102.58
2018-10-05T03:05:05.535Z,102096.55
2018-10-05T03:08:10.935Z,102096.89
2018-10-05T03:11:27.782Z,102097.73
2018-10-05T03:14:33.444Z,102097.06
2018-10-05T03:17:38.864Z,102092.84
2018-10-05T03:20:44.266Z,102085.69
2018-10-05T03:23:49.767Z,102086.14
2018-10-05T03:26:55.331Z,102086.66
2018-10-05T03:30:00.752Z,102088.25
2018-10-05T03:33:06.263Z,102088.38
2018-10-05T03:36:11.664Z,102086.53
2018-10-05T03:39:17.071Z,102086.35
2018-10-05T03:42:22.500Z,102080.28
2018-10-05T03:45:27.919Z,102080.66
2018-10-05T03:48:33.328Z,102084.58
2018-10-05T03:51:38.806Z,102082.56
2018-10-05T03:54:44.282Z,102075.73
2018-10-05T03:57:49.691Z,102076.20
2018-10-05T04:00:55.071Z,102070.63
2018-10-05T04:04:00.579Z,102067.97
2018-10-05T04:07:06.500Z,102072.28
2018-10-05T04:10:11.900Z,102061.48
2018-10-05T04:13:17.401Z,102064.69
2018-10-05T04:16:22.815Z,102065.71
2018-10-05T04:19:28.227Z,102065.48
2018-10-05T04:22:33.635Z,102065.20
2018-10-05T04:25:39.139Z,102063.56
2018-10-05T04:28:44.548Z,102061.12
2018-10-05T04:31:49.931Z,102068.70
2018-10-05T04:34:55.431Z,102073.26
2018-10-05T04:38:00.842Z,102074.95
2018-10-05T04:41:09.491Z,102071.66
2018-10-05T04:44:14.963Z,102067.91
2018-10-05T04:47:20.424Z,102068.88
2018-10-05T04:50:25.811Z,102072.12
2018-10-05T04:53:31.309Z,102068.20
2018-10-05T04:56:36.706Z,102064.70
2018-10-05T04:59:42.175Z,102061.16
2018-10-05T05:02:47.599Z,102062.47
2018-10-05T05:05:55.067Z,102063.77
2018-10-05T05:09:00.466Z,102061.96
2018-10-05T05:12:06.314Z,102055.47
2018-10-05T05:15:11.932Z,102062.98
2018-10-05T05:18:17.359Z,102060.70
2018-10-05T05:21:22.738Z,102065.59
2018-10-05T05:24:28.249Z,102066.55
2018-10-05T05:27:33.681Z,102065.79
2018-10-05T05:30:39.063Z,102060.22
2018-10-05T05:33:44.745Z,102063.34
2018-10-05T05:36:50.431Z,102064.95
2018-10-05T05:39:55.858Z,102064.77
2018-10-05T05:43:02.260Z,102066.97
2018-10-05T05:46:08.234Z,102066.24
2018-10-05T05:49:14.291Z,102067.38
2018-10-05T05:52:19.791Z,102063.92
2018-10-05T05:55:25.338Z,102066.20
2018-10-05T05:58:30.808Z,102064.03
2018-10-05T06:01:36.227Z,102060.59
2018-10-05T06:04:41.764Z,102060.59
2018-10-05T06:07:47.175Z,102066.14
2018-10-05T06:10:53.214Z,102065.52
2018-10-05T06:13:58.784Z,102056.38
2018-10-05T06:17:04.197Z,102063.63
2018-10-05T06:20:09.650Z,102067.09
2018-10-05T06:23:17.379Z,102068.61
2018-10-05T06:26:22.786Z,102068.95
2018-10-05T06:29:28.218Z,102074.94
2018-10-05T06:32:33.618Z,102081.22
2018-10-05T06:35:39.100Z,102078.95
2018-10-05T06:38:44.503Z,102087.51
2018-10-05T06:41:49.957Z,102089.56
2018-10-05T06:44:55.483Z,102093.66
2018-10-05T06:48:00.927Z,102095.30
2018-10-05T06:51:07.036Z,102088.18
2018-10-05T06:54:12.530Z,102094.25
2018-10-05T06:57:18.242Z,102088.52
2018-10-05T07:00:23.729Z,102092.73
2018-10-05T07:03:29.282Z,102097.38
2018-10-05T07:06:34.873Z,102093.41
2018-10-05T07:09:40.304Z,102092.56
2018-10-05T07:12:45.698Z,102090.16
2018-10-05T07:15:51.231Z,102084.52
2018-10-05T07:18:56.840Z,102083.38
2018-10-05T07:22:02.251Z,102080.38
2018-10-05T07:25:07.744Z,102080.97
2018-10-05T07:28:13.258Z,102076.77
2018-10-05T07:31:18.874Z,102079.09
2018-10-05T07:34:24.388Z,102076.77
2018-10-05T07:37:29.987Z,102083.95
2018-10-05T07:40:35.594Z,102084.80
2018-10-05T07:43:41.120Z,102086.77
2018-10-05T07:46:46.631Z,102082.70
2018-10-05T07:49:52.081Z,102078.45
2018-10-05T07:52:57.481Z,102079.70
2018-10-05T07:56:02.973Z,102080.60
2018-10-05T07:59:08.417Z,102082.47
2018-10-05T08:02:13.842Z,102082.42
2018-10-05T08:05:19.274Z,102082.09
2018-10-05T08:08:24.699Z,102078.17
2018-10-05T08:11:30.111Z,102075.92
2018-10-05T08:14:35.556Z,102072.91
2018-10-05T08:17:41.015Z,102075.05
2018-10-05T08:20:46.440Z,102076.67
2018-10-05T08:23:53.959Z,102078.23
2018-10-05T08:26:59.624Z,102072.31
2018-10-05T08:30:06.095Z,102067.83
2018-10-05T08:33:11.551Z,102069.96
2018-10-05T08:36:17.014Z,102065.81
2018-10-05T08:39:22.382Z,102071.55
2018-10-05T08:42:27.835Z,102058.50
2018-10-05T08:45:33.315Z,102067.11
2018-10-05T08:48:38.884Z,102064.61
2018-10-05T08:51:44.359Z,102060.96
2018-10-05T08:54:49.981Z,102057.56
2018-10-05T08:57:55.372Z,102053.30
2018-10-05T09:01:00.826Z,102048.18
2018-10-05T09:04:06.256Z,102049.59
2018-10-05T09:07:11.662Z,102048.23
2018-10-05T09:10:17.062Z,102041.66
2018-10-05T09:13:23.192Z,102042.73
2018-10-05T09:16:28.737Z,102035.19
2018-10-05T09:19:34.148Z,102031.55
2018-10-05T09:22:39.714Z,102031.38
2018-10-05T09:25:45.733Z,102029.91
2018-10-05T09:28:51.127Z,102026.30
2018-10-05T09:31:56.527Z,102019.77
2018-10-05T09:35:01.942Z,102015.74
2018-10-05T09:38:07.396Z,102008.33
2018-10-05T09:41:12.798Z,102016.25
2018-10-05T09:44:18.208Z,102007.92
2018-10-05T09:47:23.736Z,102010.12
2018-10-05T09:50:29.342Z,102008.03
2018-10-05T09:53:34.767Z,101998.20
2018-10-05T09:56:40.288Z,101996.88
2018-10-05T09:59:45.812Z,101992.77
2018-10-05T10:02:57.150Z,101985.97
2018-10-05T10:06:02.923Z,101980.52
2018-10-05T10:09:09.675Z,101980.03
2018-10-05T10:12:15.115Z,101974.70
2018-10-05T10:15:20.839Z,101974.23
2018-10-05T10:18:26.920Z,101978.74
2018-10-05T10:21:32.813Z,101975.34
2018-10-05T10:24:38.415Z,101977.06
2018-10-05T10:27:44.247Z,101983.05
2018-10-05T10:30:49.826Z,101972.91
2018-10-05T10:33:55.251Z,101965.13
2018-10-05T10:37:00.800Z,101960.87
2018-10-05T10:40:06.278Z,101961.54
2018-10-05T10:43:11.875Z,101958.30
2018-10-05T10:46:17.623Z,101950.27
2018-10-05T10:49:23.028Z,101949.84
2018-10-05T10:52:28.555Z,101938.80
2018-10-05T10:55:34.071Z,101942.20
2018-10-05T10:58:39.479Z,101938.52
2018-10-05T11:01:44.875Z,101939.64
2018-10-05T11:04:50.682Z,101932.52
2018-10-05T11:07:56.111Z,101928.20
2018-10-05T11:11:01.588Z,101923.41
2018-10-05T11:14:07.023Z,101921.52
2018-10-05T11:17:12.647Z,101917.23
2018-10-05T11:20:18.020Z,101916.29
2018-10-05T11:23:23.560Z,101909.38
2018-10-05T11:26:29.157Z,101906.69
2018-10-05T11:29:34.601Z,101909.35
2018-10-05T11:32:40.195Z,101898.02
2018-10-05T11:35:45.619Z,101894.05
2018-10-05T11:38:51.048Z,101892.09
2018-10-05T11:41:56.500Z,101889.99
2018-10-05T11:45:01.921Z,101884.27
2018-10-05T11:48:07.656Z,101873.16
2018-10-05T11:51:13.072Z,101865.83
2018-10-05T11:54:18.523Z,101862.48
2018-10-05T11:57:23.980Z,101860.57
2018-10-05T12:00:29.382Z,101853.19
2018-10-05T12:03:35.492Z,101852.56
2018-10-05T12:06:41.451Z,101847.02
2018-10-05T12:09:47.166Z,101834.97
2018-10-05T12:12:52.633Z,101821.98
2018-10-05T12:15:58.047Z,101829.52
2018-10-05T12:19:03.458Z,101826.70
2018-10-05T12:22:08.887Z,101807.09
2018-10-05T12:25:14.292Z,101812.27
2018-10-05T12:28:19.706Z,101809.22
2018-10-05T12:31:25.187Z,101811.02
2018-10-05T12:34:30.634Z,101801.33
2018-10-05T12:37:36.179Z,101794.25
2018-10-05T12:40:41.608Z,101784.98
2018-10-05T12:43:47.110Z,101776.63
2018-10-05T12:46:52.543Z,101777.23
2018-10-05T12:49:58.011Z,101771.61
2018-10-05T12:53:03.412Z,101766.67
2018-10-05T12:56:08.821Z,101769.27
2018-10-05T12:59:14.860Z,101765.45
2018-10-05T13:02:20.291Z,101756.56
2018-10-05T13:05:25.704Z,101751.23
2018-10-05T13:08:31.147Z,101752.35
2018-10-05T13:11:37.099Z,101744.10
2018-10-05T13:14:42.524Z,101737.78
2018-10-05T13:17:47.982Z,101739.72
2018-10-05T13:20:53.391Z,101726.32
2018-10-05T13:23:59.064Z,101719.58
2018-10-05T13:27:04.504Z,101714.22
2018-10-05T13:30:10.514Z,101714.38
2018-10-05T13:33:15.984Z,101706.48
2018-10-05T13:36:21.624Z,101701.55
2018-10-05T13:39:27.342Z,101712.97
2018-10-05T13:42:32.756Z,101705.25
2018-10-05T13:45:38.183Z,101698.34
2018-10-05T13:48:43.645Z,101695.97
2018-10-05T13:51:49.366Z,101698.41
2018-10-05T13:54:54.834Z,101693.32
2018-10-05T13:58:00.267Z,101688.28
2018-10-05T14:01:05.658Z,101683.25
2018-10-05T14:04:11.058Z,101684.72
2018-10-05T14:07:16.488Z,101671.41
2018-10-05T14:10:21.953Z,101667.92
2018-10-05T14:13:27.534Z,101664.64
2018-10-05T14:16:32.917Z,101665.23
2018-10-05T14:19:38.368Z,101654.08
2018-10-05T14:22:43.751Z,101645.52
2018-10-05T14:25:49.138Z,101651.37
2018-10-05T14:28:54.651Z,101645.55
2018-10-05T14:32:00.394Z,101635.05
2018-10-05T14:35:06.238Z,101635.14
2018-10-05T14:38:11.793Z,101636.25
2018-10-05T14:41:17.183Z,101632.06
2018-10-05T14:44:22.578Z,101633.73
2018-10-05T14:47:39.374Z,101620.52
2018-10-05T14:50:44.746Z,101630.06
2018-10-05T14:53:50.129Z,101610.79
2018-10-05T14:56:55.764Z,101612.27
2018-10-05T15:00:01.345Z,101607.78
2018-10-05T15:03:06.786Z,101605.97
2018-10-05T15:06:12.169Z,101601.70
2018-10-05T15:09:17.555Z,101595.05
2018-10-05T15:12:22.943Z,101590.02
2018-10-05T15:15:28.355Z,101586.33
2018-10-05T15:18:33.749Z,101584.62
2018-10-05T15:21:39.217Z,101572.87
2018-10-05T15:24:44.776Z,101573.64
2018-10-05T15:27:50.339Z,101571.11
2018-10-05T15:30:55.722Z,101564.61
2018-10-05T15:34:01.121Z,101564.97
2018-10-05T15:37:06.671Z,101567.51
2018-10-05T15:40:12.099Z,101555.62
2018-10-05T15:43:17.490Z,101556.11
2018-10-05T15:47:12.737Z,101542.70
2018-10-05T15:50:18.642Z,101542.45
2018-10-05T15:53:24.036Z,101545.67
2018-10-05T15:56:29.540Z,101536.69
2018-10-05T15:59:35.636Z,101539.06
2018-10-05T16:02:40.999Z,101538.72
2018-10-05T16:05:46.506Z,101538.36
2018-10-05T16:08:52.064Z,101539.92
2018-10-05T16:11:58.216Z,101539.45
2018-10-05T16:15:03.858Z,101533.44
2018-10-05T16:18:09.273Z,101527.19
2018-10-05T16:21:15.957Z,101517.80
2018-10-05T16:24:53.135Z,101527.59
2018-10-05T16:27:58.730Z,101522.20
2018-10-05T16:31:04.195Z,101527.48
2018-10-05T16:34:09.774Z,101527.08
2018-10-05T16:37:15.217Z,101525.94
2018-10-05T16:40:20.978Z,101524.84
2018-10-05T16:43:26.467Z,101528.14
2018-10-05T16:46:31.938Z,101518.78
2018-10-05T16:49:37.315Z,101517.17
2018-10-05T16:52:42.700Z,101520.08
2018-10-05T16:55:48.096Z,101518.92
2018-10-05T16:58:53.453Z,101525.73
2018-10-05T17:01:58.883Z,101519.40
2018-10-05T17:05:04.410Z,101519.72
2018-10-05T17:08:09.834Z,101517.95
2018-10-05T17:11:15.235Z,101517.84
2018-10-05T17:14:20.599Z,101512.80
2018-10-05T17:17:25.998Z,101517.15
2018-10-05T17:20:32.011Z,101515.04
2018-10-05T17:23:37.422Z,101518.77
2018-10-05T17:26:42.994Z,101521.08
2018-10-05T17:29:48.363Z,101522.34
2018-10-05T17:32:53.762Z,101520.30
2018-10-05T17:35:59.174Z,101518.42
2018-10-05T17:39:06.901Z,101518.88
2018-10-05T17:42:12.295Z,101519.86
2018-10-05T17:45:18.409Z,101513.42
2018-10-05T17:48:23.787Z,101514.98
2018-10-05T17:51:29.180Z,101514.35
2018-10-05T17:54:34.607Z,101509.80
2018-10-05T17:57:40.001Z,101505.16
2018-10-05T18:00:45.407Z,101503.55
2018-10-05T18:03:50.778Z,101496.86
2018-10-05T18:06:56.159Z,101496.11
2018-10-05T18:10:01.518Z,101486.20
2018-10-05T18:13:07.267Z,101483.09
2018-10-05T18:16:12.711Z,101485.63
2018-10-05T18:19:18.146Z,101485.09
2018-10-05T18:22:23.687Z,101477.08
2018-10-05T18:25:29.095Z,101479.86
2018-10-05T18:28:34.622Z,101470.80
2018-10-05T18:31:40.009Z,101470.72
2018-10-05T18:34:45.415Z,101465.86
2018-10-05T18:37:50.807Z,101462.47
2018-10-05T18:40:56.187Z,101457.05
2018-10-05T18:44:01.639Z,101463.78
2018-10-05T18:47:08.067Z,101462.95
2018-10-05T18:50:13.434Z,101456.27
2018-10-05T18:53:18.822Z,101455.42
2018-10-05T18:56:41.166Z,101456.46
2018-10-05T18:59:46.570Z,101458.73
2018-10-05T19:02:51.974Z,101454.59
2018-10-05T19:05:57.346Z,101455.07
2018-10-05T19:09:06.377Z,101451.60
2018-10-05T19:12:11.804Z,101451.03
2018-10-05T19:15:17.315Z,101449.53
2018-10-05T19:18:22.758Z,101438.98
2018-10-05T19:21:28.134Z,101446.87
2018-10-05T19:24:33.530Z,101440.70
2018-10-05T19:27:39.031Z,101442.92
2018-10-05T19:30:44.410Z,101441.06
2018-10-05T19:33:49.975Z,101435.59
2018-10-05T19:36:57.514Z,101435.78
2018-10-05T19:40:02.907Z,101436.83
2018-10-05T19:43:08.323Z,101431.70
2018-10-05T19:46:14.042Z,101430.36
2018-10-05T19:49:19.420Z,101418.78
2018-10-05T19:52:24.871Z,101422.49
2018-10-05T19:55:30.258Z,101421.33
2018-10-05T19:58:37.823Z,101419.05
2018-10-05T20:01:43.565Z,101421.00
2018-10-05T20:04:49.199Z,101418.12
2018-10-05T20:07:54.574Z,101411.88
2018-10-05T20:10:59.991Z,101405.02
2018-10-05T20:14:05.510Z,101408.84
2018-10-05T20:17:10.910Z,101402.40
2018-10-05T20:20:16.290Z,101404.62
2018-10-05T20:23:21.685Z,101401.86
2018-10-05T20:26:27.407Z,101398.00
2018-10-05T20:29:32.794Z,101393.84
2018-10-05T20:32:38.193Z,101393.02
2018-10-05T20:35:43.826Z,101391.05
2018-10-05T20:38:49.232Z,101389.22
2018-10-05T20:41:54.802Z,101382.55
2018-10-05T20:45:00.211Z,101385.72
2018-10-05T20:48:05.565Z,101381.80
2018-10-05T20:51:10.962Z,101379.75
2018-10-05T20:54:16.360Z,101377.56
2018-10-05T20:57:21.735Z,101379.59
2018-10-05T21:00:27.282Z,101363.28
2018-10-05T21:03:32.659Z,101371.09
2018-10-05T21:06:38.093Z,101365.73
2018-10-05T21:09:43.666Z,101359.98
2018-10-05T21:12:49.233Z,101355.09
2018-10-05T21:15:54.647Z,101350.03
2018-10-05T21:19:00.068Z,101344.73
2018-10-05T21:22:05.429Z,101346.39
2018-10-05T21:25:10.826Z,101341.98
2018-10-05T21:28:16.186Z,101343.08
2018-10-05T21:31:21.631Z,101346.61
2018-10-05T21:34:27.081Z,101342.69
2018-10-05T21:37:32.602Z,101342.69
2018-10-05T21:40:38.006Z,101336.72
2018-10-05T21:43:43.898Z,101333.33
2018-10-05T21:46:49.275Z,101332.80
2018-10-05T21:49:54.666Z,101328.56
2018-10-05T21:53:00.047Z,101330.05
2018-10-05T21:56:05.433Z,101324.22
2018-10-05T21:59:10.787Z,101318.59
2018-10-05T22:02:16.177Z,101315.06
2018-10-05T22:05:21.579Z,101314.87
2018-10-05T22:08:27.479Z,101311.34
2018-10-05T22:11:32.910Z,101305.20
2018-10-05T22:14:38.562Z,101309.50
2018-10-05T22:17:44.000Z,101302.80
2018-10-05T22:20:49.386Z,101301.05
2018-10-05T22:23:54.774Z,101300.42
2018-10-05T22:27:00.704Z,101300.19
2018-10-05T22:30:07.525Z,101294.08
2018-10-05T22:33:13.537Z,101286.36
2018-10-05T22:36:18.918Z,101283.73
2018-10-05T22:39:24.323Z,101280.75
2018-10-05T22:42:29.714Z,101283.59
2018-10-05T22:45:35.130Z,101275.66
2018-10-05T22:48:40.509Z,101277.35
2018-10-05T22:51:45.888Z,101280.91
2018-10-05T22:54:51.262Z,101283.34
2018-10-05T22:57:56.687Z,101281.44
2018-10-05T23:01:02.046Z,101273.06
2018-10-05T23:04:07.442Z,101272.50
2018-10-05T23:07:13.297Z,101270.22
2018-10-05T23:10:18.659Z,101261.47
2018-10-05T23:13:24.056Z,101265.00
2018-10-05T23:16:29.425Z,101257.00
2018-10-05T23:19:34.814Z,101251.41
2018-10-05T23:22:40.307Z,101255.32
2018-10-05T23:25:46.030Z,101250.63
2018-10-05T23:28:51.543Z,101253.24
2018-10-05T23:31:57.319Z,101247.97
2018-10-05T23:35:02.724Z,101239.14
2018-10-05T23:38:08.338Z,101238.27
2018-10-05T23:41:13.699Z,101234.91
2018-10-05T23:44:19.090Z,101227.52
2018-10-05T23:47:24.485Z,101228.14
2018-10-05T23:50:29.854Z,101228.30
2018-10-05T23:53:35.238Z,101223.86
2018-10-05T23:56:40.598Z,101226.84
2018-10-05T23:59:45.985Z,101230.52
